sensor_id;sensor_type;location;lat;lon;timestamp;P1;durP1;ratioP1;P2;durP2;ratioP2
76417;SDS011;65250;47.602;19.002;2022-12-18T00:01:20;34.97;;;13.23;;
76417;SDS011;65250;47.602;19.002;2022-12-18T00:03:50;38.85;;;13.75;;
76417;SDS011;65250;47.602;19.002;2022-12-18T00:06:19;44.80;;;15.18;;
76417;SDS011;65250;47.602;19.002;2022-12-18T00:08:47;42.65;;;13.48;;
76417;SDS011;65250;47.602;19.002;2022-12-18T00:11:15;39.87;;;14.60;;
76417;SDS011;65250;47.602;19.002;2022-12-18T00:13:45;40.47;;;14.30;;
76417;SDS011;65250;47.602;19.002;2022-12-18T00:16:13;38.60;;;13.95;;
76417;SDS011;65250;47.602;19.002;2022-12-18T00:18:42;37.35;;;12.75;;
76417;SDS011;65250;47.602;19.002;2022-12-18T00:21:10;37.13;;;13.60;;
76417;SDS011;65250;47.602;19.002;2022-12-18T00:23:39;32.90;;;12.23;;
76417;SDS011;65250;47.602;19.002;2022-12-18T00:26:12;32.17;;;12.55;;
76417;SDS011;65250;47.602;19.002;2022-12-18T00:28:42;38.42;;;14.18;;
76417;SDS011;65250;47.602;19.002;2022-12-18T00:31:11;38.33;;;12.75;;
76417;SDS011;65250;47.602;19.002;2022-12-18T00:33:40;35.28;;;13.70;;
76417;SDS011;65250;47.602;19.002;2022-12-18T00:36:12;38.93;;;12.33;;
76417;SDS011;65250;47.602;19.002;2022-12-18T00:38:41;39.58;;;14.32;;
76417;SDS011;65250;47.602;19.002;2022-12-18T00:41:09;40.40;;;13.82;;
76417;SDS011;65250;47.602;19.002;2022-12-18T00:43:38;38.22;;;12.60;;
76417;SDS011;65250;47.602;19.002;2022-12-18T00:46:07;34.70;;;12.15;;
76417;SDS011;65250;47.602;19.002;2022-12-18T00:48:35;36.07;;;13.17;;
76417;SDS011;65250;47.602;19.002;2022-12-18T00:51:02;43.95;;;15.25;;
76417;SDS011;65250;47.602;19.002;2022-12-18T00:53:30;38.15;;;13.10;;
76417;SDS011;65250;47.602;19.002;2022-12-18T00:55:57;33.65;;;12.52;;
76417;SDS011;65250;47.602;19.002;2022-12-18T00:58:25;32.22;;;12.43;;
76417;SDS011;65250;47.602;19.002;2022-12-18T01:00:52;37.67;;;14.63;;
76417;SDS011;65250;47.602;19.002;2022-12-18T01:03:20;35.38;;;13.70;;
76417;SDS011;65250;47.602;19.002;2022-12-18T01:05:47;37.88;;;12.13;;
76417;SDS011;65250;47.602;19.002;2022-12-18T01:08:14;32.67;;;12.63;;
76417;SDS011;65250;47.602;19.002;2022-12-18T01:10:42;41.38;;;14.68;;
76417;SDS011;65250;47.602;19.002;2022-12-18T01:13:10;32.70;;;12.07;;
76417;SDS011;65250;47.602;19.002;2022-12-18T01:15:38;39.42;;;14.82;;
76417;SDS011;65250;47.602;19.002;2022-12-18T01:18:06;40.33;;;14.02;;
76417;SDS011;65250;47.602;19.002;2022-12-18T01:20:33;37.42;;;12.70;;
76417;SDS011;65250;47.602;19.002;2022-12-18T01:23:01;34.08;;;12.45;;
76417;SDS011;65250;47.602;19.002;2022-12-18T01:25:28;38.30;;;13.67;;
76417;SDS011;65250;47.602;19.002;2022-12-18T01:27:56;39.85;;;13.10;;
76417;SDS011;65250;47.602;19.002;2022-12-18T01:30:23;41.20;;;13.95;;
76417;SDS011;65250;47.602;19.002;2022-12-18T01:32:52;35.75;;;12.05;;
76417;SDS011;65250;47.602;19.002;2022-12-18T01:35:19;40.50;;;14.02;;
76417;SDS011;65250;47.602;19.002;2022-12-18T01:37:47;40.77;;;13.20;;
76417;SDS011;65250;47.602;19.002;2022-12-18T01:40:14;36.47;;;13.18;;
76417;SDS011;65250;47.602;19.002;2022-12-18T01:42:42;37.50;;;13.05;;
76417;SDS011;65250;47.602;19.002;2022-12-18T01:52:43;39.65;;;13.27;;
76417;SDS011;65250;47.602;19.002;2022-12-18T01:55:14;34.38;;;12.75;;
76417;SDS011;65250;47.602;19.002;2022-12-18T01:57:44;31.73;;;12.50;;
76417;SDS011;65250;47.602;19.002;2022-12-18T02:00:16;34.55;;;12.65;;
76417;SDS011;65250;47.602;19.002;2022-12-18T02:02:45;29.50;;;11.07;;
76417;SDS011;65250;47.602;19.002;2022-12-18T02:05:15;32.83;;;11.90;;
76417;SDS011;65250;47.602;19.002;2022-12-18T02:13:23;35.13;;;11.73;;
76417;SDS011;65250;47.602;19.002;2022-12-18T02:18:45;33.75;;;12.38;;
76417;SDS011;65250;47.602;19.002;2022-12-18T02:31:36;42.05;;;13.48;;
76417;SDS011;65250;47.602;19.002;2022-12-18T02:34:09;38.30;;;13.88;;
76417;SDS011;65250;47.602;19.002;2022-12-18T02:36:39;38.67;;;13.88;;
76417;SDS011;65250;47.602;19.002;2022-12-18T02:39:09;33.88;;;11.82;;
76417;SDS011;65250;47.602;19.002;2022-12-18T02:41:38;32.47;;;11.80;;
76417;SDS011;65250;47.602;19.002;2022-12-18T02:44:07;38.47;;;13.30;;
76417;SDS011;65250;47.602;19.002;2022-12-18T02:46:42;32.45;;;11.60;;
76417;SDS011;65250;47.602;19.002;2022-12-18T02:57:08;37.42;;;11.98;;
76417;SDS011;65250;47.602;19.002;2022-12-18T03:00:06;33.47;;;12.70;;
76417;SDS011;65250;47.602;19.002;2022-12-18T03:05:39;33.05;;;11.48;;
76417;SDS011;65250;47.602;19.002;2022-12-18T03:08:12;40.10;;;13.90;;
76417;SDS011;65250;47.602;19.002;2022-12-18T03:11:17;41.90;;;12.70;;
76417;SDS011;65250;47.602;19.002;2022-12-18T03:16:16;35.00;;;12.82;;
76417;SDS011;65250;47.602;19.002;2022-12-18T03:18:49;33.80;;;12.68;;
76417;SDS011;65250;47.602;19.002;2022-12-18T03:21:22;34.20;;;13.63;;
76417;SDS011;65250;47.602;19.002;2022-12-18T03:23:59;44.45;;;14.45;;
76417;SDS011;65250;47.602;19.002;2022-12-18T03:26:28;40.58;;;13.73;;
76417;SDS011;65250;47.602;19.002;2022-12-18T03:28:58;35.00;;;12.68;;
76417;SDS011;65250;47.602;19.002;2022-12-18T03:31:27;34.58;;;12.85;;
76417;SDS011;65250;47.602;19.002;2022-12-18T03:34:00;38.83;;;13.17;;
76417;SDS011;65250;47.602;19.002;2022-12-18T03:36:36;35.75;;;12.40;;
76417;SDS011;65250;47.602;19.002;2022-12-18T03:39:04;40.65;;;13.20;;
76417;SDS011;65250;47.602;19.002;2022-12-18T03:41:42;36.38;;;13.50;;
76417;SDS011;65250;47.602;19.002;2022-12-18T03:44:15;37.20;;;12.57;;
76417;SDS011;65250;47.602;19.002;2022-12-18T03:52:39;40.40;;;11.73;;
76417;SDS011;65250;47.602;19.002;2022-12-18T03:55:18;37.97;;;12.70;;
76417;SDS011;65250;47.602;19.002;2022-12-18T03:57:47;34.65;;;13.32;;
76417;SDS011;65250;47.602;19.002;2022-12-18T04:00:16;46.77;;;14.30;;
76417;SDS011;65250;47.602;19.002;2022-12-18T04:02:45;37.97;;;12.65;;
76417;SDS011;65250;47.602;19.002;2022-12-18T04:05:17;42.22;;;13.18;;
76417;SDS011;65250;47.602;19.002;2022-12-18T04:07:46;39.97;;;13.20;;
76417;SDS011;65250;47.602;19.002;2022-12-18T04:10:15;35.60;;;12.73;;
76417;SDS011;65250;47.602;19.002;2022-12-18T04:12:43;37.27;;;13.43;;
76417;SDS011;65250;47.602;19.002;2022-12-18T04:15:11;37.63;;;12.57;;
76417;SDS011;65250;47.602;19.002;2022-12-18T04:17:42;37.28;;;11.95;;
76417;SDS011;65250;47.602;19.002;2022-12-18T04:20:16;36.13;;;13.00;;
76417;SDS011;65250;47.602;19.002;2022-12-18T04:22:44;33.90;;;12.07;;
76417;SDS011;65250;47.602;19.002;2022-12-18T04:25:12;30.10;;;11.63;;
76417;SDS011;65250;47.602;19.002;2022-12-18T04:27:41;35.88;;;11.88;;
76417;SDS011;65250;47.602;19.002;2022-12-18T04:30:09;36.15;;;12.10;;
76417;SDS011;65250;47.602;19.002;2022-12-18T04:32:37;33.20;;;12.60;;
76417;SDS011;65250;47.602;19.002;2022-12-18T04:35:05;35.50;;;12.48;;
76417;SDS011;65250;47.602;19.002;2022-12-18T04:37:37;38.47;;;12.90;;
76417;SDS011;65250;47.602;19.002;2022-12-18T04:40:05;37.95;;;12.55;;
76417;SDS011;65250;47.602;19.002;2022-12-18T04:42:33;40.92;;;13.77;;
76417;SDS011;65250;47.602;19.002;2022-12-18T04:45:00;39.05;;;14.38;;
76417;SDS011;65250;47.602;19.002;2022-12-18T04:47:28;34.03;;;13.27;;
76417;SDS011;65250;47.602;19.002;2022-12-18T04:49:56;39.53;;;12.40;;
76417;SDS011;65250;47.602;19.002;2022-12-18T04:52:24;34.33;;;12.27;;
76417;SDS011;65250;47.602;19.002;2022-12-18T04:54:52;38.47;;;13.55;;
76417;SDS011;65250;47.602;19.002;2022-12-18T04:57:19;30.48;;;11.50;;
76417;SDS011;65250;47.602;19.002;2022-12-18T04:59:47;29.85;;;11.35;;
76417;SDS011;65250;47.602;19.002;2022-12-18T05:02:14;30.10;;;11.43;;
76417;SDS011;65250;47.602;19.002;2022-12-18T05:04:42;36.67;;;11.85;;
76417;SDS011;65250;47.602;19.002;2022-12-18T05:07:10;36.80;;;12.68;;
76417;SDS011;65250;47.602;19.002;2022-12-18T05:09:38;35.60;;;11.73;;
76417;SDS011;65250;47.602;19.002;2022-12-18T05:12:06;37.38;;;11.77;;
76417;SDS011;65250;47.602;19.002;2022-12-18T05:14:33;30.90;;;11.13;;
76417;SDS011;65250;47.602;19.002;2022-12-18T05:17:01;39.15;;;11.50;;
76417;SDS011;65250;47.602;19.002;2022-12-18T05:19:29;32.63;;;12.25;;
76417;SDS011;65250;47.602;19.002;2022-12-18T05:21:57;35.90;;;12.27;;
76417;SDS011;65250;47.602;19.002;2022-12-18T05:24:24;33.47;;;12.18;;
76417;SDS011;65250;47.602;19.002;2022-12-18T05:26:52;29.70;;;11.33;;
76417;SDS011;65250;47.602;19.002;2022-12-18T05:29:20;42.53;;;13.27;;
76417;SDS011;65250;47.602;19.002;2022-12-18T05:31:48;35.97;;;11.88;;
76417;SDS011;65250;47.602;19.002;2022-12-18T05:34:16;37.80;;;12.45;;
76417;SDS011;65250;47.602;19.002;2022-12-18T05:36:43;33.30;;;11.73;;
76417;SDS011;65250;47.602;19.002;2022-12-18T05:39:11;36.67;;;11.97;;
76417;SDS011;65250;47.602;19.002;2022-12-18T05:41:39;36.78;;;11.73;;
76417;SDS011;65250;47.602;19.002;2022-12-18T05:44:07;30.50;;;11.18;;
76417;SDS011;65250;47.602;19.002;2022-12-18T05:46:34;35.38;;;12.20;;
76417;SDS011;65250;47.602;19.002;2022-12-18T05:49:03;35.53;;;11.82;;
76417;SDS011;65250;47.602;19.002;2022-12-18T05:51:31;35.93;;;12.57;;
76417;SDS011;65250;47.602;19.002;2022-12-18T05:53:58;36.00;;;13.60;;
76417;SDS011;65250;47.602;19.002;2022-12-18T05:56:26;32.30;;;12.07;;
76417;SDS011;65250;47.602;19.002;2022-12-18T05:58:54;33.35;;;11.68;;
76417;SDS011;65250;47.602;19.002;2022-12-18T06:01:23;37.20;;;12.73;;
76417;SDS011;65250;47.602;19.002;2022-12-18T06:03:54;30.27;;;11.43;;
76417;SDS011;65250;47.602;19.002;2022-12-18T06:06:23;33.45;;;11.63;;
76417;SDS011;65250;47.602;19.002;2022-12-18T06:08:52;32.25;;;11.80;;
76417;SDS011;65250;47.602;19.002;2022-12-18T06:11:21;35.85;;;12.60;;
76417;SDS011;65250;47.602;19.002;2022-12-18T06:13:51;34.38;;;11.50;;
76417;SDS011;65250;47.602;19.002;2022-12-18T06:16:25;32.67;;;10.97;;
76417;SDS011;65250;47.602;19.002;2022-12-18T06:18:59;35.90;;;11.57;;
76417;SDS011;65250;47.602;19.002;2022-12-18T06:21:29;30.70;;;11.55;;
76417;SDS011;65250;47.602;19.002;2022-12-18T06:23:57;32.10;;;11.70;;
76417;SDS011;65250;47.602;19.002;2022-12-18T06:26:25;33.35;;;11.65;;
76417;SDS011;65250;47.602;19.002;2022-12-18T06:28:54;32.83;;;11.13;;
76417;SDS011;65250;47.602;19.002;2022-12-18T06:31:23;37.78;;;13.05;;
76417;SDS011;65250;47.602;19.002;2022-12-18T06:33:51;34.72;;;13.20;;
76417;SDS011;65250;47.602;19.002;2022-12-18T06:36:19;34.95;;;13.35;;
76417;SDS011;65250;47.602;19.002;2022-12-18T06:38:47;37.53;;;13.38;;
76417;SDS011;65250;47.602;19.002;2022-12-18T06:41:19;32.43;;;12.63;;
76417;SDS011;65250;47.602;19.002;2022-12-18T06:43:47;37.38;;;12.63;;
76417;SDS011;65250;47.602;19.002;2022-12-18T06:46:14;39.25;;;13.50;;
76417;SDS011;65250;47.602;19.002;2022-12-18T06:48:42;34.10;;;12.82;;
76417;SDS011;65250;47.602;19.002;2022-12-18T06:51:10;33.22;;;12.88;;
76417;SDS011;65250;47.602;19.002;2022-12-18T06:53:38;39.67;;;13.70;;
76417;SDS011;65250;47.602;19.002;2022-12-18T06:56:07;37.72;;;14.82;;
76417;SDS011;65250;47.602;19.002;2022-12-18T06:58:36;35.42;;;14.10;;
76417;SDS011;65250;47.602;19.002;2022-12-18T07:01:05;31.27;;;12.43;;
76417;SDS011;65250;47.602;19.002;2022-12-18T07:03:35;38.58;;;13.82;;
76417;SDS011;65250;47.602;19.002;2022-12-18T07:06:03;36.40;;;12.37;;
76417;SDS011;65250;47.602;19.002;2022-12-18T07:08:31;34.55;;;13.07;;
76417;SDS011;65250;47.602;19.002;2022-12-18T07:10:59;34.05;;;13.55;;
76417;SDS011;65250;47.602;19.002;2022-12-18T07:13:29;37.65;;;14.13;;
76417;SDS011;65250;47.602;19.002;2022-12-18T07:16:04;41.72;;;15.13;;
76417;SDS011;65250;47.602;19.002;2022-12-18T07:18:50;35.90;;;12.33;;
76417;SDS011;65250;47.602;19.002;2022-12-18T07:21:18;41.83;;;13.75;;
76417;SDS011;65250;47.602;19.002;2022-12-18T07:23:46;33.00;;;13.43;;
76417;SDS011;65250;47.602;19.002;2022-12-18T07:26:16;36.15;;;13.65;;
76417;SDS011;65250;47.602;19.002;2022-12-18T07:28:45;34.05;;;13.27;;
76417;SDS011;65250;47.602;19.002;2022-12-18T07:31:16;41.50;;;14.43;;
76417;SDS011;65250;47.602;19.002;2022-12-18T07:33:47;36.40;;;16.38;;
76417;SDS011;65250;47.602;19.002;2022-12-18T07:36:14;37.42;;;14.50;;
76417;SDS011;65250;47.602;19.002;2022-12-18T07:38:42;41.20;;;14.73;;
76417;SDS011;65250;47.602;19.002;2022-12-18T07:41:11;37.83;;;14.70;;
76417;SDS011;65250;47.602;19.002;2022-12-18T07:43:39;40.80;;;16.57;;
76417;SDS011;65250;47.602;19.002;2022-12-18T07:46:08;36.63;;;13.48;;
76417;SDS011;65250;47.602;19.002;2022-12-18T07:48:39;38.78;;;15.40;;
76417;SDS011;65250;47.602;19.002;2022-12-18T07:51:15;34.60;;;13.75;;
76417;SDS011;65250;47.602;19.002;2022-12-18T07:53:44;35.78;;;14.40;;
76417;SDS011;65250;47.602;19.002;2022-12-18T07:56:12;34.47;;;14.20;;
76417;SDS011;65250;47.602;19.002;2022-12-18T07:58:57;29.40;;;12.20;;
76417;SDS011;65250;47.602;19.002;2022-12-18T08:01:26;39.47;;;13.18;;
76417;SDS011;65250;47.602;19.002;2022-12-18T08:03:54;32.60;;;12.65;;
76417;SDS011;65250;47.602;19.002;2022-12-18T08:06:22;31.52;;;13.00;;
76417;SDS011;65250;47.602;19.002;2022-12-18T08:08:51;34.90;;;13.60;;
76417;SDS011;65250;47.602;19.002;2022-12-18T08:11:22;33.92;;;13.73;;
76417;SDS011;65250;47.602;19.002;2022-12-18T08:13:50;31.55;;;13.10;;
76417;SDS011;65250;47.602;19.002;2022-12-18T08:16:19;32.97;;;13.07;;
76417;SDS011;65250;47.602;19.002;2022-12-18T08:18:47;30.70;;;13.02;;
76417;SDS011;65250;47.602;19.002;2022-12-18T08:21:19;34.03;;;13.97;;
76417;SDS011;65250;47.602;19.002;2022-12-18T08:23:50;34.30;;;13.60;;
76417;SDS011;65250;47.602;19.002;2022-12-18T08:26:18;34.90;;;14.52;;
76417;SDS011;65250;47.602;19.002;2022-12-18T08:28:47;35.08;;;14.40;;
76417;SDS011;65250;47.602;19.002;2022-12-18T08:31:16;33.28;;;14.93;;
76417;SDS011;65250;47.602;19.002;2022-12-18T08:33:45;32.63;;;12.93;;
76417;SDS011;65250;47.602;19.002;2022-12-18T08:36:12;30.98;;;12.80;;
76417;SDS011;65250;47.602;19.002;2022-12-18T08:38:40;30.50;;;12.80;;
76417;SDS011;65250;47.602;19.002;2022-12-18T08:41:09;29.85;;;12.93;;
76417;SDS011;65250;47.602;19.002;2022-12-18T08:43:38;31.00;;;13.70;;
76417;SDS011;65250;47.602;19.002;2022-12-18T08:46:25;32.13;;;13.83;;
76417;SDS011;65250;47.602;19.002;2022-12-18T08:48:54;32.38;;;13.02;;
76417;SDS011;65250;47.602;19.002;2022-12-18T08:51:22;35.05;;;14.73;;
76417;SDS011;65250;47.602;19.002;2022-12-18T08:53:50;34.33;;;15.15;;
76417;SDS011;65250;47.602;19.002;2022-12-18T08:56:18;33.55;;;15.10;;
76417;SDS011;65250;47.602;19.002;2022-12-18T08:58:46;38.07;;;15.03;;
76417;SDS011;65250;47.602;19.002;2022-12-18T09:01:14;39.90;;;15.90;;
76417;SDS011;65250;47.602;19.002;2022-12-18T09:03:41;33.22;;;15.10;;
76417;SDS011;65250;47.602;19.002;2022-12-18T09:06:12;34.78;;;16.20;;
76417;SDS011;65250;47.602;19.002;2022-12-18T09:08:42;37.33;;;17.20;;
76417;SDS011;65250;47.602;19.002;2022-12-18T09:11:21;35.70;;;15.80;;
76417;SDS011;65250;47.602;19.002;2022-12-18T09:13:50;39.10;;;15.85;;
76417;SDS011;65250;47.602;19.002;2022-12-18T09:16:18;37.45;;;16.70;;
76417;SDS011;65250;47.602;19.002;2022-12-18T09:18:46;36.13;;;16.45;;
76417;SDS011;65250;47.602;19.002;2022-12-18T09:21:15;37.85;;;16.15;;
76417;SDS011;65250;47.602;19.002;2022-12-18T09:23:50;37.73;;;16.33;;
76417;SDS011;65250;47.602;19.002;2022-12-18T09:26:18;34.55;;;14.95;;
76417;SDS011;65250;47.602;19.002;2022-12-18T09:28:46;38.13;;;16.08;;
76417;SDS011;65250;47.602;19.002;2022-12-18T09:31:13;35.72;;;16.42;;
76417;SDS011;65250;47.602;19.002;2022-12-18T09:33:41;35.53;;;15.30;;
76417;SDS011;65250;47.602;19.002;2022-12-18T09:36:09;31.97;;;14.50;;
76417;SDS011;65250;47.602;19.002;2022-12-18T09:38:37;30.95;;;14.65;;
76417;SDS011;65250;47.602;19.002;2022-12-18T09:41:06;34.53;;;15.55;;
76417;SDS011;65250;47.602;19.002;2022-12-18T09:43:45;33.75;;;14.27;;
76417;SDS011;65250;47.602;19.002;2022-12-18T09:46:18;38.28;;;15.57;;
76417;SDS011;65250;47.602;19.002;2022-12-18T09:48:48;29.97;;;14.43;;
76417;SDS011;65250;47.602;19.002;2022-12-18T09:51:27;37.70;;;15.60;;
76417;SDS011;65250;47.602;19.002;2022-12-18T09:53:58;34.42;;;14.88;;
76417;SDS011;65250;47.602;19.002;2022-12-18T09:56:29;30.60;;;14.07;;
76417;SDS011;65250;47.602;19.002;2022-12-18T09:58:59;31.17;;;14.32;;
76417;SDS011;65250;47.602;19.002;2022-12-18T10:01:28;29.07;;;13.23;;
76417;SDS011;65250;47.602;19.002;2022-12-18T10:04:09;29.98;;;12.77;;
76417;SDS011;65250;47.602;19.002;2022-12-18T10:09:33;25.13;;;12.38;;
76417;SDS011;65250;47.602;19.002;2022-12-18T10:12:07;28.65;;;12.20;;
76417;SDS011;65250;47.602;19.002;2022-12-18T10:17:45;27.27;;;12.02;;
76417;SDS011;65250;47.602;19.002;2022-12-18T10:20:16;25.63;;;11.82;;
76417;SDS011;65250;47.602;19.002;2022-12-18T10:25:25;28.30;;;11.80;;
76417;SDS011;65250;47.602;19.002;2022-12-18T10:27:57;28.97;;;11.33;;
76417;SDS011;65250;47.602;19.002;2022-12-18T10:30:27;25.30;;;11.35;;
76417;SDS011;65250;47.602;19.002;2022-12-18T10:32:58;22.75;;;10.65;;
76417;SDS011;65250;47.602;19.002;2022-12-18T10:35:28;22.73;;;10.77;;
76417;SDS011;65250;47.602;19.002;2022-12-18T10:37:59;24.58;;;11.73;;
76417;SDS011;65250;47.602;19.002;2022-12-18T10:40:28;24.60;;;11.27;;
76417;SDS011;65250;47.602;19.002;2022-12-18T10:43:09;23.20;;;11.23;;
76417;SDS011;65250;47.602;19.002;2022-12-18T10:45:39;24.23;;;11.30;;
76417;SDS011;65250;47.602;19.002;2022-12-18T10:48:20;26.35;;;11.77;;
76417;SDS011;65250;47.602;19.002;2022-12-18T10:50:48;21.65;;;10.70;;
76417;SDS011;65250;47.602;19.002;2022-12-18T10:53:37;27.07;;;11.07;;
76417;SDS011;65250;47.602;19.002;2022-12-18T10:56:05;23.83;;;10.85;;
76417;SDS011;65250;47.602;19.002;2022-12-18T10:58:34;24.60;;;11.48;;
76417;SDS011;65250;47.602;19.002;2022-12-18T11:01:11;22.35;;;10.32;;
76417;SDS011;65250;47.602;19.002;2022-12-18T11:06:18;24.10;;;12.10;;
76417;SDS011;65250;47.602;19.002;2022-12-18T11:09:02;25.33;;;11.20;;
76417;SDS011;65250;47.602;19.002;2022-12-18T11:11:52;24.02;;;10.50;;
76417;SDS011;65250;47.602;19.002;2022-12-18T11:14:29;20.27;;;10.00;;
76417;SDS011;65250;47.602;19.002;2022-12-18T11:16:59;20.80;;;9.82;;
76417;SDS011;65250;47.602;19.002;2022-12-18T11:19:53;20.80;;;10.03;;
76417;SDS011;65250;47.602;19.002;2022-12-18T11:22:34;19.40;;;9.48;;
76417;SDS011;65250;47.602;19.002;2022-12-18T11:28:06;20.95;;;10.65;;
76417;SDS011;65250;47.602;19.002;2022-12-18T11:31:08;24.65;;;12.20;;
76417;SDS011;65250;47.602;19.002;2022-12-18T11:36:47;24.05;;;11.43;;
76417;SDS011;65250;47.602;19.002;2022-12-18T11:39:19;19.00;;;9.65;;
76417;SDS011;65250;47.602;19.002;2022-12-18T11:42:00;19.92;;;9.77;;
76417;SDS011;65250;47.602;19.002;2022-12-18T11:44:39;22.73;;;10.63;;
76417;SDS011;65250;47.602;19.002;2022-12-18T11:50:10;21.83;;;10.57;;
76417;SDS011;65250;47.602;19.002;2022-12-18T11:52:41;19.10;;;9.75;;
76417;SDS011;65250;47.602;19.002;2022-12-18T11:55:13;25.23;;;10.85;;
76417;SDS011;65250;47.602;19.002;2022-12-18T12:00:29;21.20;;;9.87;;
76417;SDS011;65250;47.602;19.002;2022-12-18T12:27:17;10.67;;;6.20;;
76417;SDS011;65250;47.602;19.002;2022-12-18T12:38:14;8.70;;;5.18;;
76417;SDS011;65250;47.602;19.002;2022-12-18T12:40:54;11.07;;;4.73;;
76417;SDS011;65250;47.602;19.002;2022-12-18T12:46:01;12.27;;;5.38;;
76417;SDS011;65250;47.602;19.002;2022-12-18T12:48:37;10.82;;;5.43;;
76417;SDS011;65250;47.602;19.002;2022-12-18T12:51:08;10.57;;;4.85;;
76417;SDS011;65250;47.602;19.002;2022-12-18T12:53:39;12.90;;;6.30;;
76417;SDS011;65250;47.602;19.002;2022-12-18T12:56:09;11.50;;;6.65;;
76417;SDS011;65250;47.602;19.002;2022-12-18T13:01:41;21.20;;;9.00;;
76417;SDS011;65250;47.602;19.002;2022-12-18T13:04:34;18.52;;;7.82;;
76417;SDS011;65250;47.602;19.002;2022-12-18T13:07:12;16.27;;;7.80;;
76417;SDS011;65250;47.602;19.002;2022-12-18T13:13:00;21.50;;;9.65;;
76417;SDS011;65250;47.602;19.002;2022-12-18T13:18:20;20.60;;;9.63;;
76417;SDS011;65250;47.602;19.002;2022-12-18T13:23:31;23.02;;;10.57;;
76417;SDS011;65250;47.602;19.002;2022-12-18T13:32:00;20.05;;;8.88;;
76417;SDS011;65250;47.602;19.002;2022-12-18T13:36:53;24.85;;;10.38;;
76417;SDS011;65250;47.602;19.002;2022-12-18T13:50:23;19.38;;;8.85;;
76417;SDS011;65250;47.602;19.002;2022-12-18T13:52:57;21.60;;;9.73;;
76417;SDS011;65250;47.602;19.002;2022-12-18T13:55:25;26.85;;;10.18;;
76417;SDS011;65250;47.602;19.002;2022-12-18T13:58:03;21.08;;;8.68;;
76417;SDS011;65250;47.602;19.002;2022-12-18T14:00:32;25.03;;;10.77;;
76417;SDS011;65250;47.602;19.002;2022-12-18T14:03:00;21.92;;;9.68;;
76417;SDS011;65250;47.602;19.002;2022-12-18T14:05:32;23.33;;;10.02;;
76417;SDS011;65250;47.602;19.002;2022-12-18T14:08:05;23.05;;;9.95;;
76417;SDS011;65250;47.602;19.002;2022-12-18T14:10:35;23.92;;;9.75;;
76417;SDS011;65250;47.602;19.002;2022-12-18T14:13:17;25.03;;;10.00;;
76417;SDS011;65250;47.602;19.002;2022-12-18T14:15:50;20.20;;;9.32;;
76417;SDS011;65250;47.602;19.002;2022-12-18T14:20:51;23.88;;;10.10;;
76417;SDS011;65250;47.602;19.002;2022-12-18T14:26:01;23.80;;;8.73;;
76417;SDS011;65250;47.602;19.002;2022-12-18T14:28:31;24.65;;;9.30;;
76417;SDS011;65250;47.602;19.002;2022-12-18T14:30:59;23.33;;;9.38;;
76417;SDS011;65250;47.602;19.002;2022-12-18T14:33:27;24.13;;;9.95;;
76417;SDS011;65250;47.602;19.002;2022-12-18T14:43:34;21.20;;;8.82;;
76417;SDS011;65250;47.602;19.002;2022-12-18T14:46:03;28.77;;;9.65;;
76417;SDS011;65250;47.602;19.002;2022-12-18T14:48:52;22.90;;;9.45;;
76417;SDS011;65250;47.602;19.002;2022-12-18T14:51:24;27.30;;;10.27;;
76417;SDS011;65250;47.602;19.002;2022-12-18T14:54:01;26.95;;;10.20;;
76417;SDS011;65250;47.602;19.002;2022-12-18T14:56:34;33.15;;;12.00;;
76417;SDS011;65250;47.602;19.002;2022-12-18T14:59:11;26.30;;;11.95;;
76417;SDS011;65250;47.602;19.002;2022-12-18T15:02:10;32.22;;;12.52;;
76417;SDS011;65250;47.602;19.002;2022-12-18T15:05:00;36.77;;;15.67;;
76417;SDS011;65250;47.602;19.002;2022-12-18T15:07:44;44.42;;;16.45;;
76417;SDS011;65250;47.602;19.002;2022-12-18T15:10:26;39.45;;;16.17;;
76417;SDS011;65250;47.602;19.002;2022-12-18T15:20:44;39.05;;;16.70;;
76417;SDS011;65250;47.602;19.002;2022-12-18T15:23:29;69.13;;;26.25;;
76417;SDS011;65250;47.602;19.002;2022-12-18T15:28:39;58.40;;;24.30;;
76417;SDS011;65250;47.602;19.002;2022-12-18T15:36:17;75.15;;;32.47;;
76417;SDS011;65250;47.602;19.002;2022-12-18T15:38:53;69.47;;;27.20;;
76417;SDS011;65250;47.602;19.002;2022-12-18T15:41:27;62.33;;;26.00;;
76417;SDS011;65250;47.602;19.002;2022-12-18T15:43:55;55.17;;;22.17;;
76417;SDS011;65250;47.602;19.002;2022-12-18T15:46:23;50.70;;;21.77;;
76417;SDS011;65250;47.602;19.002;2022-12-18T15:48:53;54.08;;;21.50;;
76417;SDS011;65250;47.602;19.002;2022-12-18T15:51:28;45.35;;;18.05;;
76417;SDS011;65250;47.602;19.002;2022-12-18T15:53:58;44.60;;;16.38;;
76417;SDS011;65250;47.602;19.002;2022-12-18T15:56:27;38.37;;;15.70;;
76417;SDS011;65250;47.602;19.002;2022-12-18T15:59:14;39.42;;;15.77;;
76417;SDS011;65250;47.602;19.002;2022-12-18T16:01:45;47.38;;;18.35;;
76417;SDS011;65250;47.602;19.002;2022-12-18T16:04:15;43.83;;;17.10;;
76417;SDS011;65250;47.602;19.002;2022-12-18T16:06:43;42.80;;;17.40;;
76417;SDS011;65250;47.602;19.002;2022-12-18T16:09:30;36.87;;;14.17;;
76417;SDS011;65250;47.602;19.002;2022-12-18T16:11:58;39.30;;;15.73;;
76417;SDS011;65250;47.602;19.002;2022-12-18T16:14:27;42.28;;;16.38;;
76417;SDS011;65250;47.602;19.002;2022-12-18T16:17:02;43.35;;;15.63;;
76417;SDS011;65250;47.602;19.002;2022-12-18T16:19:32;35.92;;;14.88;;
76417;SDS011;65250;47.602;19.002;2022-12-18T16:22:01;35.13;;;14.33;;
76417;SDS011;65250;47.602;19.002;2022-12-18T16:24:29;35.42;;;14.13;;
76417;SDS011;65250;47.602;19.002;2022-12-18T16:26:58;35.35;;;14.65;;
76417;SDS011;65250;47.602;19.002;2022-12-18T16:29:27;35.45;;;13.30;;
76417;SDS011;65250;47.602;19.002;2022-12-18T16:31:56;34.15;;;13.55;;
76417;SDS011;65250;47.602;19.002;2022-12-18T16:34:29;37.37;;;14.27;;
76417;SDS011;65250;47.602;19.002;2022-12-18T16:37:02;44.00;;;14.38;;
76417;SDS011;65250;47.602;19.002;2022-12-18T16:39:35;36.03;;;14.88;;
76417;SDS011;65250;47.602;19.002;2022-12-18T16:42:09;32.55;;;13.57;;
76417;SDS011;65250;47.602;19.002;2022-12-18T16:44:39;39.53;;;14.63;;
76417;SDS011;65250;47.602;19.002;2022-12-18T16:47:07;30.30;;;13.73;;
76417;SDS011;65250;47.602;19.002;2022-12-18T16:49:37;36.80;;;15.02;;
76417;SDS011;65250;47.602;19.002;2022-12-18T16:52:05;42.13;;;15.88;;
76417;SDS011;65250;47.602;19.002;2022-12-18T16:54:33;40.78;;;14.95;;
76417;SDS011;65250;47.602;19.002;2022-12-18T16:57:02;36.28;;;14.77;;
76417;SDS011;65250;47.602;19.002;2022-12-18T16:59:33;33.00;;;13.57;;
76417;SDS011;65250;47.602;19.002;2022-12-18T17:02:05;42.83;;;15.68;;
76417;SDS011;65250;47.602;19.002;2022-12-18T17:04:33;38.45;;;14.93;;
76417;SDS011;65250;47.602;19.002;2022-12-18T17:07:01;37.38;;;15.25;;
76417;SDS011;65250;47.602;19.002;2022-12-18T17:09:30;34.38;;;14.73;;
76417;SDS011;65250;47.602;19.002;2022-12-18T17:11:58;34.27;;;13.47;;
76417;SDS011;65250;47.602;19.002;2022-12-18T17:14:30;32.83;;;13.25;;
76417;SDS011;65250;47.602;19.002;2022-12-18T17:16:58;37.60;;;14.80;;